sensor_id;sensor_type;location;lat;lon;timestamp;P1;durP1;ratioP1;P2;durP2;ratioP2
59520;SDS011;54898;40.918;14.476;2022-07-04T00:00:17;19.95;;;5.82;;
59520;SDS011;54898;40.918;14.476;2022-07-04T00:02:45;21.95;;;5.90;;
59520;SDS011;54898;40.918;14.476;2022-07-04T00:05:15;15.27;;;5.73;;
59520;SDS011;54898;40.918;14.476;2022-07-04T00:07:44;17.33;;;6.07;;
59520;SDS011;54898;40.918;14.476;2022-07-04T00:10:12;22.13;;;6.33;;
59520;SDS011;54898;40.918;14.476;2022-07-04T00:12:41;26.83;;;6.53;;
59520;SDS011;54898;40.918;14.476;2022-07-04T00:15:08;18.27;;;6.13;;
59520;SDS011;54898;40.918;14.476;2022-07-04T00:17:35;15.93;;;6.22;;
59520;SDS011;54898;40.918;14.476;2022-07-04T00:20:03;18.98;;;6.07;;
59520;SDS011;54898;40.918;14.476;2022-07-04T00:22:32;14.43;;;5.30;;
59520;SDS011;54898;40.918;14.476;2022-07-04T00:24:59;14.17;;;5.40;;
59520;SDS011;54898;40.918;14.476;2022-07-04T00:27:26;18.23;;;5.65;;
59520;SDS011;54898;40.918;14.476;2022-07-04T00:29:53;14.80;;;5.82;;
59520;SDS011;54898;40.918;14.476;2022-07-04T00:32:20;16.23;;;6.55;;
59520;SDS011;54898;40.918;14.476;2022-07-04T00:34:46;25.65;;;6.45;;
59520;SDS011;54898;40.918;14.476;2022-07-04T00:37:13;15.48;;;5.90;;
59520;SDS011;54898;40.918;14.476;2022-07-04T00:39:42;15.07;;;5.57;;
59520;SDS011;54898;40.918;14.476;2022-07-04T00:42:09;17.40;;;6.17;;
59520;SDS011;54898;40.918;14.476;2022-07-04T00:44:36;22.75;;;5.68;;
59520;SDS011;54898;40.918;14.476;2022-07-04T00:47:03;13.75;;;5.55;;
59520;SDS011;54898;40.918;14.476;2022-07-04T00:49:31;14.60;;;6.15;;
59520;SDS011;54898;40.918;14.476;2022-07-04T00:51:58;14.68;;;6.10;;
59520;SDS011;54898;40.918;14.476;2022-07-04T00:54:27;18.10;;;6.20;;
59520;SDS011;54898;40.918;14.476;2022-07-04T00:56:57;18.38;;;6.32;;
59520;SDS011;54898;40.918;14.476;2022-07-04T00:59:24;17.83;;;5.63;;
59520;SDS011;54898;40.918;14.476;2022-07-04T01:01:51;19.92;;;6.50;;
59520;SDS011;54898;40.918;14.476;2022-07-04T01:04:18;19.10;;;5.60;;
59520;SDS011;54898;40.918;14.476;2022-07-04T01:06:45;12.48;;;5.72;;
59520;SDS011;54898;40.918;14.476;2022-07-04T01:09:12;18.33;;;6.13;;
59520;SDS011;54898;40.918;14.476;2022-07-04T01:11:39;22.52;;;6.32;;
59520;SDS011;54898;40.918;14.476;2022-07-04T01:14:08;16.02;;;6.50;;
59520;SDS011;54898;40.918;14.476;2022-07-04T01:16:35;11.13;;;6.60;;
59520;SDS011;54898;40.918;14.476;2022-07-04T01:19:02;20.30;;;6.70;;
59520;SDS011;54898;40.918;14.476;2022-07-04T01:21:30;19.70;;;6.10;;
59520;SDS011;54898;40.918;14.476;2022-07-04T01:26:24;21.58;;;7.45;;
59520;SDS011;54898;40.918;14.476;2022-07-04T01:28:51;23.77;;;6.72;;
59520;SDS011;54898;40.918;14.476;2022-07-04T01:31:18;15.23;;;6.80;;
59520;SDS011;54898;40.918;14.476;2022-07-04T01:33:44;19.95;;;6.97;;
59520;SDS011;54898;40.918;14.476;2022-07-04T01:36:11;23.38;;;6.63;;
59520;SDS011;54898;40.918;14.476;2022-07-04T01:38:40;21.05;;;7.15;;
59520;SDS011;54898;40.918;14.476;2022-07-04T01:41:07;13.93;;;6.03;;
59520;SDS011;54898;40.918;14.476;2022-07-04T01:43:33;19.95;;;6.63;;
59520;SDS011;54898;40.918;14.476;2022-07-04T01:46:01;23.55;;;7.32;;
59520;SDS011;54898;40.918;14.476;2022-07-04T01:48:28;19.90;;;6.63;;
59520;SDS011;54898;40.918;14.476;2022-07-04T01:50:55;17.25;;;6.50;;
59520;SDS011;54898;40.918;14.476;2022-07-04T01:53:22;14.00;;;5.72;;
59520;SDS011;54898;40.918;14.476;2022-07-04T01:55:50;19.88;;;7.05;;
59520;SDS011;54898;40.918;14.476;2022-07-04T01:58:17;13.63;;;5.97;;
59520;SDS011;54898;40.918;14.476;2022-07-04T02:00:44;17.17;;;5.68;;
59520;SDS011;54898;40.918;14.476;2022-07-04T02:03:29;19.95;;;6.30;;
59520;SDS011;54898;40.918;14.476;2022-07-04T02:05:56;18.38;;;6.38;;
59520;SDS011;54898;40.918;14.476;2022-07-04T02:08:23;18.40;;;6.00;;
59520;SDS011;54898;40.918;14.476;2022-07-04T02:11:11;17.30;;;6.38;;
59520;SDS011;54898;40.918;14.476;2022-07-04T02:13:38;13.18;;;6.32;;
59520;SDS011;54898;40.918;14.476;2022-07-04T02:16:04;18.17;;;6.32;;
59520;SDS011;54898;40.918;14.476;2022-07-04T02:18:31;11.40;;;5.43;;
59520;SDS011;54898;40.918;14.476;2022-07-04T02:20:58;17.63;;;5.78;;
59520;SDS011;54898;40.918;14.476;2022-07-04T02:23:24;18.05;;;6.60;;
59520;SDS011;54898;40.918;14.476;2022-07-04T02:25:51;15.90;;;6.30;;
59520;SDS011;54898;40.918;14.476;2022-07-04T02:28:20;14.75;;;5.97;;
59520;SDS011;54898;40.918;14.476;2022-07-04T02:30:47;20.85;;;5.75;;
59520;SDS011;54898;40.918;14.476;2022-07-04T02:33:14;18.38;;;5.85;;
59520;SDS011;54898;40.918;14.476;2022-07-04T02:35:40;18.20;;;5.97;;
59520;SDS011;54898;40.918;14.476;2022-07-04T02:38:07;16.30;;;5.50;;
59520;SDS011;54898;40.918;14.476;2022-07-04T02:40:34;16.73;;;6.38;;
59520;SDS011;54898;40.918;14.476;2022-07-04T02:43:01;16.35;;;6.40;;
59520;SDS011;54898;40.918;14.476;2022-07-04T02:45:29;19.75;;;6.00;;
59520;SDS011;54898;40.918;14.476;2022-07-04T02:47:55;19.52;;;6.53;;
59520;SDS011;54898;40.918;14.476;2022-07-04T02:50:22;17.73;;;5.50;;
59520;SDS011;54898;40.918;14.476;2022-07-04T02:52:49;19.02;;;5.80;;
59520;SDS011;54898;40.918;14.476;2022-07-04T02:55:16;13.95;;;5.68;;
59520;SDS011;54898;40.918;14.476;2022-07-04T02:57:43;22.20;;;5.82;;
59520;SDS011;54898;40.918;14.476;2022-07-04T03:00:10;16.85;;;6.60;;
59520;SDS011;54898;40.918;14.476;2022-07-04T03:02:40;19.52;;;7.57;;
59520;SDS011;54898;40.918;14.476;2022-07-04T03:05:07;15.85;;;6.97;;
59520;SDS011;54898;40.918;14.476;2022-07-04T03:07:34;19.92;;;6.45;;
59520;SDS011;54898;40.918;14.476;2022-07-04T03:10:01;15.38;;;6.57;;
59520;SDS011;54898;40.918;14.476;2022-07-04T03:12:28;16.45;;;6.00;;
59520;SDS011;54898;40.918;14.476;2022-07-04T03:14:55;18.33;;;6.22;;
59520;SDS011;54898;40.918;14.476;2022-07-04T03:17:21;19.75;;;6.38;;
59520;SDS011;54898;40.918;14.476;2022-07-04T03:19:50;16.50;;;6.13;;
59520;SDS011;54898;40.918;14.476;2022-07-04T03:22:17;18.27;;;6.03;;
59520;SDS011;54898;40.918;14.476;2022-07-04T03:24:43;16.60;;;5.88;;
59520;SDS011;54898;40.918;14.476;2022-07-04T03:27:11;18.10;;;6.63;;
59520;SDS011;54898;40.918;14.476;2022-07-04T03:29:38;17.50;;;6.32;;
59520;SDS011;54898;40.918;14.476;2022-07-04T03:32:05;22.02;;;5.95;;
59520;SDS011;54898;40.918;14.476;2022-07-04T03:34:32;18.42;;;5.90;;
59520;SDS011;54898;40.918;14.476;2022-07-04T03:37:00;18.95;;;5.80;;
59520;SDS011;54898;40.918;14.476;2022-07-04T03:39:27;16.75;;;5.80;;
59520;SDS011;54898;40.918;14.476;2022-07-04T03:41:54;18.85;;;5.65;;
59520;SDS011;54898;40.918;14.476;2022-07-04T03:44:21;18.27;;;5.90;;
59520;SDS011;54898;40.918;14.476;2022-07-04T03:46:48;22.48;;;5.57;;
59520;SDS011;54898;40.918;14.476;2022-07-04T03:49:15;23.60;;;6.05;;
59520;SDS011;54898;40.918;14.476;2022-07-04T03:51:42;15.23;;;5.40;;
59520;SDS011;54898;40.918;14.476;2022-07-04T03:54:10;19.45;;;6.10;;
59520;SDS011;54898;40.918;14.476;2022-07-04T03:56:37;15.65;;;5.40;;
59520;SDS011;54898;40.918;14.476;2022-07-04T03:59:04;21.73;;;5.50;;
59520;SDS011;54898;40.918;14.476;2022-07-04T04:01:31;18.02;;;6.03;;
59520;SDS011;54898;40.918;14.476;2022-07-04T04:03:58;24.27;;;5.78;;
59520;SDS011;54898;40.918;14.476;2022-07-04T04:06:43;17.30;;;5.70;;
59520;SDS011;54898;40.918;14.476;2022-07-04T04:09:12;25.55;;;5.82;;
59520;SDS011;54898;40.918;14.476;2022-07-04T04:11:42;41.70;;;5.97;;
59520;SDS011;54898;40.918;14.476;2022-07-04T04:14:09;19.52;;;5.72;;
59520;SDS011;54898;40.918;14.476;2022-07-04T04:16:36;14.35;;;4.53;;
59520;SDS011;54898;40.918;14.476;2022-07-04T04:19:04;21.40;;;5.85;;
59520;SDS011;54898;40.918;14.476;2022-07-04T04:21:31;21.40;;;5.35;;
59520;SDS011;54898;40.918;14.476;2022-07-04T04:23:58;18.98;;;5.63;;
59520;SDS011;54898;40.918;14.476;2022-07-04T04:26:26;26.45;;;4.80;;
59520;SDS011;54898;40.918;14.476;2022-07-04T04:28:53;24.25;;;5.68;;
59520;SDS011;54898;40.918;14.476;2022-07-04T04:31:19;31.20;;;5.63;;
59520;SDS011;54898;40.918;14.476;2022-07-04T04:33:46;30.23;;;6.43;;
59520;SDS011;54898;40.918;14.476;2022-07-04T04:36:13;23.27;;;5.38;;
59520;SDS011;54898;40.918;14.476;2022-07-04T04:38:40;20.45;;;5.90;;
59520;SDS011;54898;40.918;14.476;2022-07-04T04:41:07;18.25;;;5.93;;
59520;SDS011;54898;40.918;14.476;2022-07-04T04:43:36;28.73;;;6.57;;
59520;SDS011;54898;40.918;14.476;2022-07-04T04:46:03;33.40;;;6.43;;
59520;SDS011;54898;40.918;14.476;2022-07-04T04:48:30;25.60;;;6.63;;
59520;SDS011;54898;40.918;14.476;2022-07-04T04:50:57;20.02;;;5.93;;
59520;SDS011;54898;40.918;14.476;2022-07-04T04:53:24;19.52;;;5.55;;
59520;SDS011;54898;40.918;14.476;2022-07-04T04:55:51;16.75;;;5.28;;
59520;SDS011;54898;40.918;14.476;2022-07-04T04:58:18;22.90;;;6.63;;
59520;SDS011;54898;40.918;14.476;2022-07-04T05:00:46;24.48;;;6.75;;
59520;SDS011;54898;40.918;14.476;2022-07-04T05:03:15;20.75;;;6.35;;
59520;SDS011;54898;40.918;14.476;2022-07-04T05:05:42;21.42;;;6.00;;
59520;SDS011;54898;40.918;14.476;2022-07-04T05:08:09;19.15;;;6.68;;
59520;SDS011;54898;40.918;14.476;2022-07-04T05:10:36;35.30;;;7.05;;
59520;SDS011;54898;40.918;14.476;2022-07-04T05:13:03;38.08;;;7.30;;
59520;SDS011;54898;40.918;14.476;2022-07-04T05:15:30;69.03;;;10.90;;
59520;SDS011;54898;40.918;14.476;2022-07-04T05:18:01;49.35;;;8.02;;
59520;SDS011;54898;40.918;14.476;2022-07-04T05:20:28;68.22;;;10.38;;
59520;SDS011;54898;40.918;14.476;2022-07-04T05:22:55;53.88;;;10.07;;
59520;SDS011;54898;40.918;14.476;2022-07-04T05:25:21;56.65;;;9.48;;
59520;SDS011;54898;40.918;14.476;2022-07-04T05:27:48;57.55;;;9.25;;
59520;SDS011;54898;40.918;14.476;2022-07-04T05:30:15;43.03;;;8.10;;
59520;SDS011;54898;40.918;14.476;2022-07-04T05:32:41;39.80;;;8.50;;
59520;SDS011;54898;40.918;14.476;2022-07-04T05:35:10;39.40;;;8.18;;
59520;SDS011;54898;40.918;14.476;2022-07-04T05:37:37;46.08;;;8.18;;
59520;SDS011;54898;40.918;14.476;2022-07-04T05:40:05;41.67;;;7.53;;
59520;SDS011;54898;40.918;14.476;2022-07-04T05:42:33;34.60;;;8.65;;
59520;SDS011;54898;40.918;14.476;2022-07-04T05:45:01;30.45;;;7.32;;
59520;SDS011;54898;40.918;14.476;2022-07-04T05:47:28;35.22;;;7.45;;
59520;SDS011;54898;40.918;14.476;2022-07-04T05:49:54;30.63;;;7.78;;
59520;SDS011;54898;40.918;14.476;2022-07-04T05:52:24;35.90;;;7.80;;
59520;SDS011;54898;40.918;14.476;2022-07-04T05:54:50;48.15;;;8.77;;
59520;SDS011;54898;40.918;14.476;2022-07-04T05:57:17;58.10;;;8.85;;
59520;SDS011;54898;40.918;14.476;2022-07-04T05:59:44;58.35;;;9.32;;
59520;SDS011;54898;40.918;14.476;2022-07-04T06:02:11;46.47;;;8.07;;
59520;SDS011;54898;40.918;14.476;2022-07-04T06:04:39;65.00;;;9.85;;
59520;SDS011;54898;40.918;14.476;2022-07-04T06:07:06;44.40;;;8.07;;
59520;SDS011;54898;40.918;14.476;2022-07-04T06:09:34;51.17;;;8.52;;
59520;SDS011;54898;40.918;14.476;2022-07-04T06:12:01;38.00;;;8.27;;
59520;SDS011;54898;40.918;14.476;2022-07-04T06:14:28;41.42;;;7.75;;
59520;SDS011;54898;40.918;14.476;2022-07-04T06:16:55;32.65;;;8.27;;
59520;SDS011;54898;40.918;14.476;2022-07-04T06:19:22;46.83;;;7.43;;
59520;SDS011;54898;40.918;14.476;2022-07-04T06:21:49;36.90;;;6.97;;
59520;SDS011;54898;40.918;14.476;2022-07-04T06:24:16;47.58;;;9.45;;
59520;SDS011;54898;40.918;14.476;2022-07-04T06:26:44;46.67;;;7.68;;
59520;SDS011;54898;40.918;14.476;2022-07-04T06:29:11;52.10;;;10.00;;
59520;SDS011;54898;40.918;14.476;2022-07-04T06:31:38;32.25;;;7.15;;
59520;SDS011;54898;40.918;14.476;2022-07-04T06:34:05;32.55;;;6.53;;
59520;SDS011;54898;40.918;14.476;2022-07-04T06:36:50;31.02;;;7.18;;
59520;SDS011;54898;40.918;14.476;2022-07-04T06:39:17;29.02;;;7.45;;
59520;SDS011;54898;40.918;14.476;2022-07-04T06:41:45;31.80;;;7.13;;
59520;SDS011;54898;40.918;14.476;2022-07-04T06:44:12;26.93;;;6.93;;
59520;SDS011;54898;40.918;14.476;2022-07-04T06:46:39;26.42;;;6.90;;
59520;SDS011;54898;40.918;14.476;2022-07-04T06:49:05;24.83;;;6.38;;
59520;SDS011;54898;40.918;14.476;2022-07-04T06:51:32;20.95;;;5.88;;
59520;SDS011;54898;40.918;14.476;2022-07-04T06:53:59;21.85;;;5.90;;
59520;SDS011;54898;40.918;14.476;2022-07-04T06:56:26;21.42;;;6.47;;
59520;SDS011;54898;40.918;14.476;2022-07-04T06:58:54;29.90;;;6.00;;
59520;SDS011;54898;40.918;14.476;2022-07-04T07:01:21;16.67;;;5.28;;
59520;SDS011;54898;40.918;14.476;2022-07-04T07:03:48;17.80;;;5.85;;
59520;SDS011;54898;40.918;14.476;2022-07-04T07:06:15;17.55;;;5.78;;
59520;SDS011;54898;40.918;14.476;2022-07-04T07:08:42;16.67;;;6.03;;
59520;SDS011;54898;40.918;14.476;2022-07-04T07:11:09;18.15;;;5.90;;
59520;SDS011;54898;40.918;14.476;2022-07-04T07:13:39;19.10;;;6.13;;
59520;SDS011;54898;40.918;14.476;2022-07-04T07:16:07;31.48;;;6.35;;
59520;SDS011;54898;40.918;14.476;2022-07-04T07:18:34;28.27;;;6.03;;
59520;SDS011;54898;40.918;14.476;2022-07-04T07:21:01;25.35;;;5.97;;
59520;SDS011;54898;40.918;14.476;2022-07-04T07:23:28;22.48;;;5.93;;
59520;SDS011;54898;40.918;14.476;2022-07-04T07:25:55;28.58;;;6.35;;
59520;SDS011;54898;40.918;14.476;2022-07-04T07:28:22;22.48;;;5.90;;
59520;SDS011;54898;40.918;14.476;2022-07-04T07:30:49;24.55;;;6.53;;
59520;SDS011;54898;40.918;14.476;2022-07-04T07:33:17;26.90;;;5.93;;
59520;SDS011;54898;40.918;14.476;2022-07-04T07:35:44;21.90;;;6.68;;
59520;SDS011;54898;40.918;14.476;2022-07-04T07:38:11;20.92;;;6.40;;
59520;SDS011;54898;40.918;14.476;2022-07-04T07:40:38;28.60;;;6.80;;
59520;SDS011;54898;40.918;14.476;2022-07-04T07:43:04;20.92;;;6.00;;
59520;SDS011;54898;40.918;14.476;2022-07-04T07:45:31;27.83;;;6.20;;
59520;SDS011;54898;40.918;14.476;2022-07-04T07:47:58;19.08;;;5.57;;
59520;SDS011;54898;40.918;14.476;2022-07-04T07:50:26;24.08;;;6.00;;
59520;SDS011;54898;40.918;14.476;2022-07-04T07:52:53;25.88;;;5.65;;
59520;SDS011;54898;40.918;14.476;2022-07-04T07:55:20;23.38;;;5.88;;
59520;SDS011;54898;40.918;14.476;2022-07-04T07:57:47;19.75;;;5.43;;
59520;SDS011;54898;40.918;14.476;2022-07-04T08:00:14;27.25;;;6.10;;
59520;SDS011;54898;40.918;14.476;2022-07-04T08:02:42;20.88;;;5.60;;
59520;SDS011;54898;40.918;14.476;2022-07-04T08:05:29;23.15;;;6.03;;
59520;SDS011;54898;40.918;14.476;2022-07-04T08:07:56;14.07;;;5.07;;
59520;SDS011;54898;40.918;14.476;2022-07-04T08:10:23;27.83;;;5.32;;
59520;SDS011;54898;40.918;14.476;2022-07-04T08:12:49;21.15;;;5.63;;
59520;SDS011;54898;40.918;14.476;2022-07-04T08:15:17;23.15;;;5.30;;
59520;SDS011;54898;40.918;14.476;2022-07-04T08:17:44;25.23;;;6.63;;
59520;SDS011;54898;40.918;14.476;2022-07-04T08:20:12;20.03;;;5.23;;
59520;SDS011;54898;40.918;14.476;2022-07-04T08:22:40;19.75;;;5.03;;
59520;SDS011;54898;40.918;14.476;2022-07-04T08:25:07;24.08;;;5.85;;
59520;SDS011;54898;40.918;14.476;2022-07-04T08:27:34;24.90;;;6.30;;
59520;SDS011;54898;40.918;14.476;2022-07-04T08:30:01;26.80;;;5.55;;
59520;SDS011;54898;40.918;14.476;2022-07-04T08:32:29;21.08;;;5.70;;
59520;SDS011;54898;40.918;14.476;2022-07-04T08:34:55;26.13;;;5.35;;
59520;SDS011;54898;40.918;14.476;2022-07-04T08:37:22;22.48;;;5.55;;
59520;SDS011;54898;40.918;14.476;2022-07-04T08:39:50;14.90;;;5.32;;
59520;SDS011;54898;40.918;14.476;2022-07-04T08:42:19;20.45;;;5.20;;
59520;SDS011;54898;40.918;14.476;2022-07-04T08:44:47;23.13;;;5.57;;
59520;SDS011;54898;40.918;14.476;2022-07-04T08:47:16;15.68;;;5.57;;
59520;SDS011;54898;40.918;14.476;2022-07-04T08:49:46;27.13;;;6.15;;
59520;SDS011;54898;40.918;14.476;2022-07-04T08:52:19;13.73;;;5.50;;
59520;SDS011;54898;40.918;14.476;2022-07-04T08:54:56;18.23;;;5.97;;
59520;SDS011;54898;40.918;14.476;2022-07-04T08:57:42;21.52;;;5.72;;
59520;SDS011;54898;40.918;14.476;2022-07-04T09:00:27;20.13;;;6.00;;
59520;SDS011;54898;40.918;14.476;2022-07-04T09:02:54;19.50;;;5.93;;
59520;SDS011;54898;40.918;14.476;2022-07-04T09:05:22;16.17;;;5.72;;
59520;SDS011;54898;40.918;14.476;2022-07-04T09:07:49;19.13;;;5.50;;
59520;SDS011;54898;40.918;14.476;2022-07-04T09:10:18;17.77;;;5.57;;
59520;SDS011;54898;40.918;14.476;2022-07-04T09:12:46;18.58;;;5.50;;
59520;SDS011;54898;40.918;14.476;2022-07-04T09:15:13;21.95;;;5.30;;
59520;SDS011;54898;40.918;14.476;2022-07-04T09:17:40;17.38;;;5.75;;
59520;SDS011;54898;40.918;14.476;2022-07-04T09:20:11;16.40;;;5.68;;
59520;SDS011;54898;40.918;14.476;2022-07-04T09:22:39;16.27;;;5.47;;
59520;SDS011;54898;40.918;14.476;2022-07-04T09:25:06;20.58;;;6.38;;
59520;SDS011;54898;40.918;14.476;2022-07-04T09:27:36;20.55;;;5.78;;
59520;SDS011;54898;40.918;14.476;2022-07-04T09:30:04;20.42;;;5.47;;
59520;SDS011;54898;40.918;14.476;2022-07-04T09:32:35;18.20;;;5.50;;
59520;SDS011;54898;40.918;14.476;2022-07-04T09:35:03;22.48;;;5.40;;
59520;SDS011;54898;40.918;14.476;2022-07-04T09:37:35;17.63;;;5.47;;
59520;SDS011;54898;40.918;14.476;2022-07-04T09:40:04;19.23;;;5.90;;
59520;SDS011;54898;40.918;14.476;2022-07-04T09:42:40;15.02;;;5.97;;
59520;SDS011;54898;40.918;14.476;2022-07-04T09:45:08;28.00;;;6.28;;
59520;SDS011;54898;40.918;14.476;2022-07-04T09:47:36;15.45;;;5.53;;
59520;SDS011;54898;40.918;14.476;2022-07-04T09:50:05;24.10;;;6.05;;
59520;SDS011;54898;40.918;14.476;2022-07-04T09:52:43;13.20;;;5.45;;
59520;SDS011;54898;40.918;14.476;2022-07-04T09:55:10;28.13;;;5.53;;
59520;SDS011;54898;40.918;14.476;2022-07-04T09:57:37;18.45;;;5.10;;
59520;SDS011;54898;40.918;14.476;2022-07-04T10:00:18;15.93;;;5.13;;
59520;SDS011;54898;40.918;14.476;2022-07-04T10:02:48;12.38;;;4.50;;
59520;SDS011;54898;40.918;14.476;2022-07-04T10:05:19;14.15;;;4.85;;
59520;SDS011;54898;40.918;14.476;2022-07-04T10:07:47;18.80;;;5.32;;
59520;SDS011;54898;40.918;14.476;2022-07-04T10:10:24;20.17;;;4.57;;
59520;SDS011;54898;40.918;14.476;2022-07-04T10:12:54;16.42;;;4.90;;
59520;SDS011;54898;40.918;14.476;2022-07-04T10:15:23;25.23;;;5.18;;
59520;SDS011;54898;40.918;14.476;2022-07-04T10:17:50;22.63;;;5.63;;
59520;SDS011;54898;40.918;14.476;2022-07-04T10:20:17;15.07;;;4.65;;
59520;SDS011;54898;40.918;14.476;2022-07-04T10:22:45;17.00;;;4.97;;
59520;SDS011;54898;40.918;14.476;2022-07-04T10:25:12;18.63;;;5.03;;
59520;SDS011;54898;40.918;14.476;2022-07-04T10:27:39;16.45;;;5.15;;
59520;SDS011;54898;40.918;14.476;2022-07-04T10:30:06;17.08;;;5.15;;
59520;SDS011;54898;40.918;14.476;2022-07-04T10:32:38;14.27;;;6.20;;
59520;SDS011;54898;40.918;14.476;2022-07-04T10:35:06;26.20;;;5.93;;
59520;SDS011;54898;40.918;14.476;2022-07-04T10:40:42;23.35;;;5.53;;
59520;SDS011;54898;40.918;14.476;2022-07-04T10:46:23;27.88;;;6.10;;
59520;SDS011;54898;40.918;14.476;2022-07-04T10:48:59;25.97;;;6.10;;
59520;SDS011;54898;40.918;14.476;2022-07-04T10:51:34;27.05;;;5.82;;
59520;SDS011;54898;40.918;14.476;2022-07-04T10:54:11;21.55;;;6.05;;
59520;SDS011;54898;40.918;14.476;2022-07-04T10:56:43;20.13;;;6.65;;
59520;SDS011;54898;40.918;14.476;2022-07-04T10:59:22;22.05;;;5.88;;
59520;SDS011;54898;40.918;14.476;2022-07-04T11:01:52;19.10;;;5.78;;
59520;SDS011;54898;40.918;14.476;2022-07-04T11:10:36;20.15;;;6.57;;
59520;SDS011;54898;40.918;14.476;2022-07-04T11:13:07;22.70;;;6.70;;
59520;SDS011;54898;40.918;14.476;2022-07-04T11:55:54;13.68;;;5.38;;
59520;SDS011;54898;40.918;14.476;2022-07-04T11:58:22;13.90;;;5.20;;
59520;SDS011;54898;40.918;14.476;2022-07-04T12:00:49;19.67;;;5.25;;
59520;SDS011;54898;40.918;14.476;2022-07-04T12:03:16;15.32;;;5.40;;
59520;SDS011;54898;40.918;14.476;2022-07-04T12:05:42;18.75;;;5.00;;
59520;SDS011;54898;40.918;14.476;2022-07-04T12:08:10;21.48;;;5.07;;
59520;SDS011;54898;40.918;14.476;2022-07-04T12:10:36;22.08;;;6.15;;
59520;SDS011;54898;40.918;14.476;2022-07-04T12:13:05;19.38;;;5.32;;
59520;SDS011;54898;40.918;14.476;2022-07-04T12:15:38;17.65;;;5.30;;
59520;SDS011;54898;40.918;14.476;2022-07-04T12:18:13;13.98;;;5.45;;
59520;SDS011;54898;40.918;14.476;2022-07-04T12:20:42;20.55;;;5.07;;
59520;SDS011;54898;40.918;14.476;2022-07-04T12:23:09;16.95;;;4.80;;
59520;SDS011;54898;40.918;14.476;2022-07-04T12:25:36;14.68;;;5.25;;
59520;SDS011;54898;40.918;14.476;2022-07-04T12:28:06;19.40;;;5.15;;
59520;SDS011;54898;40.918;14.476;2022-07-04T12:30:35;15.02;;;4.50;;
59520;SDS011;54898;40.918;14.476;2022-07-04T12:33:03;15.82;;;5.00;;
59520;SDS011;54898;40.918;14.476;2022-07-04T12:35:41;12.80;;;4.25;;
59520;SDS011;54898;40.918;14.476;2022-07-04T12:38:11;14.15;;;4.40;;
59520;SDS011;54898;40.918;14.476;2022-07-04T12:40:50;14.30;;;4.70;;
59520;SDS011;54898;40.918;14.476;2022-07-04T12:43:23;10.98;;;4.40;;
59520;SDS011;54898;40.918;14.476;2022-07-04T12:45:52;18.85;;;4.32;;
59520;SDS011;54898;40.918;14.476;2022-07-04T12:48:24;16.73;;;5.28;;
59520;SDS011;54898;40.918;14.476;2022-07-04T12:50:52;13.98;;;4.82;;
59520;SDS011;54898;40.918;14.476;2022-07-04T12:53:19;17.45;;;4.90;;
59520;SDS011;54898;40.918;14.476;2022-07-04T12:55:47;16.77;;;4.50;;
59520;SDS011;54898;40.918;14.476;2022-07-04T13:00:43;10.93;;;4.05;;
59520;SDS011;54898;40.918;14.476;2022-07-04T13:03:10;14.27;;;4.70;;
59520;SDS011;54898;40.918;14.476;2022-07-04T13:05:37;14.32;;;4.15;;
59520;SDS011;54898;40.918;14.476;2022-07-04T13:08:04;11.60;;;4.07;;
59520;SDS011;54898;40.918;14.476;2022-07-04T13:10:32;12.32;;;4.93;;
59520;SDS011;54898;40.918;14.476;2022-07-04T13:13:00;12.65;;;4.38;;
59520;SDS011;54898;40.918;14.476;2022-07-04T13:15:27;20.50;;;4.57;;
59520;SDS011;54898;40.918;14.476;2022-07-04T13:17:55;16.45;;;4.90;;
59520;SDS011;54898;40.918;14.476;2022-07-04T13:20:22;12.15;;;4.00;;
59520;SDS011;54898;40.918;14.476;2022-07-04T13:22:50;14.48;;;4.38;;
59520;SDS011;54898;40.918;14.476;2022-07-04T13:25:17;17.67;;;4.70;;
59520;SDS011;54898;40.918;14.476;2022-07-04T13:27:45;12.93;;;4.32;;
59520;SDS011;54898;40.918;14.476;2022-07-04T13:30:12;15.73;;;4.47;;
59520;SDS011;54898;40.918;14.476;2022-07-04T13:32:39;13.52;;;3.90;;
59520;SDS011;54898;40.918;14.476;2022-07-04T13:35:08;10.60;;;3.83;;
59520;SDS011;54898;40.918;14.476;2022-07-04T13:40:01;18.42;;;4.40;;
59520;SDS011;54898;40.918;14.476;2022-07-04T13:42:28;17.50;;;4.95;;
59520;SDS011;54898;40.918;14.476;2022-07-04T13:45:13;14.18;;;4.10;;
59520;SDS011;54898;40.918;14.476;2022-07-04T13:47:41;10.98;;;3.80;;
59520;SDS011;54898;40.918;14.476;2022-07-04T13:50:10;11.18;;;3.75;;
59520;SDS011;54898;40.918;14.476;2022-07-04T13:52:37;11.75;;;3.65;;
59520;SDS011;54898;40.918;14.476;2022-07-04T13:55:04;10.40;;;4.00;;
59520;SDS011;54898;40.918;14.476;2022-07-04T13:57:31;19.63;;;4.53;;
59520;SDS011;54898;40.918;14.476;2022-07-04T13:59:58;16.00;;;4.07;;
59520;SDS011;54898;40.918;14.476;2022-07-04T14:02:25;9.32;;;3.72;;
59520;SDS011;54898;40.918;14.476;2022-07-04T14:04:52;11.75;;;4.28;;
59520;SDS011;54898;40.918;14.476;2022-07-04T14:07:20;10.18;;;3.70;;
59520;SDS011;54898;40.918;14.476;2022-07-04T14:09:47;9.07;;;4.07;;
59520;SDS011;54898;40.918;14.476;2022-07-04T14:12:14;10.15;;;3.70;;
59520;SDS011;54898;40.918;14.476;2022-07-04T14:14:41;16.20;;;3.58;;
59520;SDS011;54898;40.918;14.476;2022-07-04T14:17:08;16.95;;;4.30;;
59520;SDS011;54898;40.918;14.476;2022-07-04T14:19:35;13.02;;;3.50;;
59520;SDS011;54898;40.918;14.476;2022-07-04T14:22:02;13.35;;;3.83;;
59520;SDS011;54898;40.918;14.476;2022-07-04T14:24:31;12.45;;;3.92;;
59520;SDS011;54898;40.918;14.476;2022-07-04T14:26:57;14.73;;;3.72;;
59520;SDS011;54898;40.918;14.476;2022-07-04T14:29:24;14.82;;;4.18;;
59520;SDS011;54898;40.918;14.476;2022-07-04T14:31:51;11.30;;;3.50;;
59520;SDS011;54898;40.918;14.476;2022-07-04T14:34:18;12.18;;;3.90;;
59520;SDS011;54898;40.918;14.476;2022-07-04T14:36:45;14.27;;;3.75;;
59520;SDS011;54898;40.918;14.476;2022-07-04T14:39:13;12.90;;;3.90;;
59520;SDS011;54898;40.918;14.476;2022-07-04T14:41:41;11.45;;;3.38;;
59520;SDS011;54898;40.918;14.476;2022-07-04T14:44:09;10.68;;;3.72;;
59520;SDS011;54898;40.918;14.476;2022-07-04T14:46:36;13.65;;;3.58;;
59520;SDS011;54898;40.918;14.476;2022-07-04T14:49:02;16.08;;;3.70;;
59520;SDS011;54898;40.918;14.476;2022-07-04T14:51:30;13.52;;;3.40;;
59520;SDS011;54898;40.918;14.476;2022-07-04T14:53:57;11.35;;;3.42;;
59520;SDS011;54898;40.918;14.476;2022-07-04T14:56:24;12.43;;;3.20;;
59520;SDS011;54898;40.918;14.476;2022-07-04T14:58:53;9.18;;;3.65;;
59520;SDS011;54898;40.918;14.476;2022-07-04T15:01:20;20.02;;;3.97;;
59520;SDS011;54898;40.918;14.476;2022-07-04T15:03:47;14.00;;;3.38;;
59520;SDS011;54898;40.918;14.476;2022-07-04T15:06:14;8.90;;;3.35;;
59520;SDS011;54898;40.918;14.476;2022-07-04T15:08:41;12.00;;;3.47;;
59520;SDS011;54898;40.918;14.476;2022-07-04T15:11:08;13.55;;;3.97;;
59520;SDS011;54898;40.918;14.476;2022-07-04T15:13:35;15.82;;;3.78;;
59520;SDS011;54898;40.918;14.476;2022-07-04T15:16:04;14.00;;;3.95;;
59520;SDS011;54898;40.918;14.476;2022-07-04T15:18:32;10.70;;;3.53;;
59520;SDS011;54898;40.918;14.476;2022-07-04T15:20:59;15.80;;;3.70;;
59520;SDS011;54898;40.918;14.476;2022-07-04T15:23:45;11.98;;;3.42;;
59520;SDS011;54898;40.918;14.476;2022-07-04T15:26:30;17.08;;;3.58;;